createdAt,value
2023-02-13T00:00:53.831Z,54.45
2023-02-13T00:01:53.856Z,54.41
2023-02-13T00:02:54.252Z,54.35
2023-02-13T00:03:53.887Z,54.22
2023-02-13T00:04:53.867Z,54.39
2023-02-13T00:05:53.809Z,54.61
2023-02-13T00:06:53.805Z,56.08
2023-02-13T00:07:53.800Z,54.97
2023-02-13T00:08:53.810Z,54.56
2023-02-13T00:09:53.768Z,54.80
2023-02-13T00:10:53.798Z,54.72
2023-02-13T00:11:53.763Z,54.82
2023-02-13T00:12:53.784Z,54.48
2023-02-13T00:13:53.747Z,54.69
2023-02-13T00:14:53.756Z,54.46
2023-02-13T00:15:53.770Z,54.58
2023-02-13T00:16:53.762Z,54.54
2023-02-13T00:17:53.730Z,54.71
2023-02-13T00:18:53.716Z,54.93
2023-02-13T00:19:53.699Z,54.34
2023-02-13T00:20:53.749Z,53.85
2023-02-13T00:21:53.704Z,54.03
2023-02-13T00:22:53.674Z,54.21
2023-02-13T00:23:53.691Z,53.88
2023-02-13T00:24:53.656Z,54.00
2023-02-13T00:26:23.810Z,54.05
2023-02-13T00:26:53.690Z,54.27
2023-02-13T00:27:53.660Z,54.18
2023-02-13T00:28:53.668Z,54.23
2023-02-13T00:29:53.631Z,55.89
2023-02-13T00:30:53.684Z,54.29
2023-02-13T00:31:53.704Z,54.31
2023-02-13T00:32:53.660Z,54.65
2023-02-13T00:33:53.621Z,54.37
2023-02-13T00:34:53.601Z,54.55
2023-02-13T00:35:53.620Z,54.83
2023-02-13T00:36:53.579Z,54.56
2023-02-13T00:37:53.599Z,54.75
2023-02-13T00:38:53.619Z,54.65
2023-02-13T00:39:53.570Z,54.66
2023-02-13T00:40:53.558Z,54.81
2023-02-13T00:41:53.548Z,56.14
2023-02-13T00:42:53.559Z,54.52
2023-02-13T00:43:53.514Z,55.69
2023-02-13T00:44:53.555Z,54.61
2023-02-13T00:45:53.555Z,54.52
2023-02-13T00:46:53.590Z,54.26
2023-02-13T00:47:53.565Z,54.33
2023-02-13T00:48:53.529Z,54.28
2023-02-13T00:49:53.486Z,54.62
2023-02-13T00:50:53.490Z,54.45
2023-02-13T00:51:53.515Z,54.39
2023-02-13T00:52:53.472Z,54.35
2023-02-13T00:53:53.461Z,54.37
2023-02-13T00:54:53.469Z,54.42
2023-02-13T00:55:53.449Z,54.18
2023-02-13T00:56:53.524Z,54.34
2023-02-13T00:57:53.426Z,54.40
2023-02-13T00:58:53.422Z,54.46
2023-02-13T00:59:53.411Z,54.47
2023-02-13T01:00:53.427Z,54.75
2023-02-13T01:01:53.457Z,54.46
2023-02-13T01:03:28.578Z,54.22
2023-02-13T01:03:53.417Z,54.35
2023-02-13T01:04:53.372Z,54.41
2023-02-13T01:05:53.441Z,54.75
2023-02-13T01:06:53.361Z,55.38
2023-02-13T01:07:53.379Z,54.45
2023-02-13T01:08:53.748Z,54.77
2023-02-13T01:09:53.362Z,54.62
2023-02-13T01:10:53.354Z,54.56
2023-02-13T01:11:53.359Z,54.06
2023-02-13T01:12:53.339Z,54.55
2023-02-13T01:13:53.313Z,55.05
2023-02-13T01:14:53.334Z,54.95
2023-02-13T01:15:53.377Z,54.66
2023-02-13T01:16:53.321Z,55.33
2023-02-13T01:17:53.273Z,54.63
2023-02-13T01:18:53.285Z,54.61
2023-02-13T01:19:53.283Z,54.27
2023-02-13T01:20:53.339Z,54.47
2023-02-13T01:21:53.265Z,54.60
2023-02-13T01:22:53.250Z,54.60
2023-02-13T01:23:53.240Z,54.37
2023-02-13T01:24:53.231Z,54.15
2023-02-13T01:25:53.237Z,54.37
2023-02-13T01:26:53.270Z,54.15
2023-02-13T01:27:53.205Z,54.07
2023-02-13T01:28:53.236Z,54.03
2023-02-13T01:29:53.207Z,54.31
2023-02-13T01:30:53.255Z,54.61
2023-02-13T01:31:53.309Z,54.94
2023-02-13T01:32:53.220Z,54.61
2023-02-13T01:33:53.165Z,54.26
2023-02-13T01:34:53.204Z,54.42
2023-02-13T01:36:19.290Z,54.71
2023-02-13T01:36:54.170Z,54.95
2023-02-13T01:37:53.155Z,56.60
2023-02-13T01:38:53.182Z,54.87
2023-02-13T01:39:53.138Z,54.30
2023-02-13T01:40:53.110Z,54.29
2023-02-13T01:41:53.117Z,54.74
2023-02-13T01:42:53.100Z,54.77
2023-02-13T01:43:53.099Z,54.55
2023-02-13T01:44:53.134Z,54.16
2023-02-13T01:45:53.087Z,53.73
2023-02-13T01:46:53.157Z,53.99
2023-02-13T01:47:53.075Z,54.45
2023-02-13T01:48:53.055Z,54.39
2023-02-13T01:49:53.063Z,54.71
2023-02-13T01:50:53.083Z,54.41
2023-02-13T01:51:53.048Z,54.44
2023-02-13T01:52:53.025Z,54.56
2023-02-13T01:53:53.077Z,54.48
2023-02-13T01:54:53.042Z,54.58
2023-02-13T01:55:52.988Z,54.48
2023-02-13T01:56:53.048Z,54.55
2023-02-13T01:57:52.980Z,54.77
2023-02-13T01:58:52.978Z,56.39
2023-02-13T01:59:52.974Z,55.74
2023-02-13T02:00:52.966Z,54.33
2023-02-13T02:01:53.031Z,54.47
2023-02-13T02:02:53.016Z,54.99
2023-02-13T02:03:52.940Z,54.96
2023-02-13T02:04:52.960Z,57.30
2023-02-13T02:05:52.923Z,56.46
2023-02-13T02:06:52.926Z,54.90
2023-02-13T02:07:52.904Z,55.29
2023-02-13T02:08:52.947Z,54.65
2023-02-13T02:09:52.918Z,54.68
2023-02-13T02:10:52.901Z,55.46
2023-02-13T02:11:52.874Z,54.62
2023-02-13T02:12:52.889Z,54.93
2023-02-13T02:13:52.866Z,54.68
2023-02-13T02:14:53.269Z,54.59
2023-02-13T02:15:52.916Z,54.73
2023-02-13T02:16:52.851Z,54.52
2023-02-13T02:17:52.815Z,54.29
2023-02-13T02:18:52.823Z,54.71
2023-02-13T02:19:52.821Z,55.35
2023-02-13T02:20:52.902Z,55.50
2023-02-13T02:21:52.816Z,55.49
2023-02-13T02:22:52.806Z,54.79
2023-02-13T02:23:52.802Z,61.72
2023-02-13T02:24:52.785Z,63.57
2023-02-13T02:25:52.788Z,57.40
2023-02-13T02:26:52.813Z,56.54
2023-02-13T02:27:52.776Z,60.59
2023-02-13T02:28:52.765Z,63.45
2023-02-13T02:29:52.740Z,57.16
2023-02-13T02:30:52.808Z,63.36
2023-02-13T02:31:52.797Z,76.46
2023-02-13T02:32:52.803Z,69.59
2023-02-13T02:33:52.742Z,67.86
2023-02-13T02:34:52.727Z,76.09
2023-02-13T02:35:52.708Z,66.77
2023-02-13T02:36:52.710Z,58.65
2023-02-13T02:37:52.701Z,57.36
2023-02-13T02:38:52.724Z,62.54
2023-02-13T02:39:52.674Z,58.12
2023-02-13T02:40:52.689Z,63.29
2023-02-13T02:41:52.644Z,55.41
2023-02-13T02:42:52.657Z,54.86
2023-02-13T02:43:52.650Z,54.44
2023-02-13T02:44:52.699Z,54.36
2023-02-13T02:45:52.643Z,54.65
2023-02-13T02:46:52.648Z,64.36
2023-02-13T02:47:52.642Z,71.43
2023-02-13T02:48:52.633Z,58.46
2023-02-13T02:49:52.601Z,55.38
2023-02-13T02:50:52.636Z,58.07
2023-02-13T02:51:52.587Z,72.55
2023-02-13T02:53:01.909Z,58.20
2023-02-13T02:53:52.565Z,54.73
2023-02-13T02:54:52.573Z,54.65
2023-02-13T02:55:52.556Z,55.01
2023-02-13T02:56:52.706Z,54.66
2023-02-13T02:57:52.544Z,54.39
2023-02-13T02:58:52.558Z,54.61
2023-02-13T02:59:52.516Z,54.59
2023-02-13T03:00:52.557Z,54.58
2023-02-13T03:01:52.495Z,54.89
2023-02-13T03:02:52.556Z,56.19
2023-02-13T03:03:52.497Z,54.78
2023-02-13T03:04:52.512Z,54.65
2023-02-13T03:05:52.486Z,56.41
2023-02-13T03:06:52.463Z,54.35
2023-02-13T03:07:52.454Z,54.48
2023-02-13T03:08:52.490Z,54.83
2023-02-13T03:09:52.444Z,55.38
2023-02-13T03:10:52.456Z,57.28
2023-02-13T03:11:52.436Z,54.63
2023-02-13T03:12:52.641Z,54.70
2023-02-13T03:13:52.510Z,56.10
2023-02-13T03:14:52.640Z,56.15
2023-02-13T03:15:52.418Z,56.38
2023-02-13T03:16:52.437Z,54.89
2023-02-13T03:17:52.484Z,55.08
2023-02-13T03:18:52.381Z,54.88
2023-02-13T03:19:52.521Z,55.49
2023-02-13T03:20:52.818Z,55.18
2023-02-13T03:21:52.366Z,55.09
2023-02-13T03:22:52.361Z,54.97
2023-02-13T03:23:52.489Z,54.73
2023-02-13T03:24:52.369Z,54.72
2023-02-13T03:25:52.335Z,56.59
2023-02-13T03:26:52.379Z,55.36
2023-02-13T03:27:52.311Z,55.38
2023-02-13T03:28:52.302Z,54.97
2023-02-13T03:29:52.295Z,56.99
2023-02-13T03:30:52.350Z,55.30
2023-02-13T03:31:52.350Z,54.46
2023-02-13T03:32:52.372Z,55.63
2023-02-13T03:33:52.322Z,57.09
2023-02-13T03:34:52.279Z,54.63
2023-02-13T03:35:52.275Z,55.28
2023-02-13T03:36:52.332Z,55.08
2023-02-13T03:37:52.273Z,55.99
2023-02-13T03:38:52.313Z,55.49
2023-02-13T03:39:52.262Z,55.31
2023-02-13T03:40:52.235Z,56.34
2023-02-13T03:41:52.288Z,55.14
2023-02-13T03:42:52.196Z,55.28
2023-02-13T03:43:52.212Z,56.59
2023-02-13T03:44:52.272Z,55.13
2023-02-13T03:45:52.217Z,55.32
2023-02-13T03:46:52.172Z,56.89
2023-02-13T03:47:52.173Z,56.68
2023-02-13T03:48:52.283Z,56.33
2023-02-13T03:49:52.160Z,57.25
2023-02-13T03:50:52.199Z,55.35
2023-02-13T03:51:52.163Z,57.18
2023-02-13T03:52:52.164Z,56.57
2023-02-13T03:53:52.277Z,55.15
2023-02-13T03:54:52.179Z,55.46
2023-02-13T03:55:52.212Z,55.71
2023-02-13T03:56:52.244Z,54.62
2023-02-13T03:57:52.192Z,54.80
2023-02-13T03:58:52.273Z,54.88
2023-02-13T03:59:52.206Z,57.80
2023-02-13T04:01:04.211Z,57.57
2023-02-13T04:01:52.104Z,55.83
2023-02-13T04:02:52.096Z,55.07
2023-02-13T04:03:52.040Z,54.79
2023-02-13T04:04:52.057Z,55.14
2023-02-13T04:05:52.037Z,55.02
2023-02-13T04:06:52.020Z,55.43
2023-02-13T04:07:52.022Z,56.78
2023-02-13T04:08:52.063Z,54.76
2023-02-13T04:09:52.002Z,56.45
2023-02-13T04:10:52.010Z,54.79
2023-02-13T04:11:51.983Z,55.49
2023-02-13T04:12:51.982Z,55.48
2023-02-13T04:13:51.973Z,55.30
2023-02-13T04:14:51.994Z,55.29
2023-02-13T04:15:51.957Z,55.57
2023-02-13T04:16:51.978Z,57.15
2023-02-13T04:17:51.951Z,56.18
2023-02-13T04:18:51.964Z,55.13
2023-02-13T04:19:51.931Z,55.00
2023-02-13T04:20:51.962Z,55.19
2023-02-13T04:21:51.908Z,55.32
2023-02-13T04:22:51.929Z,54.94
2023-02-13T04:23:51.905Z,55.53
2023-02-13T04:24:51.880Z,57.17
2023-02-13T04:25:51.912Z,56.47
2023-02-13T04:26:52.312Z,55.38
2023-02-13T04:27:51.896Z,55.89
2023-02-13T04:28:51.871Z,56.52
2023-02-13T04:29:51.863Z,56.40
2023-02-13T04:30:51.970Z,55.71
2023-02-13T04:31:52.106Z,57.57
2023-02-13T04:32:51.884Z,55.54
2023-02-13T04:33:51.826Z,55.84
2023-02-13T04:34:51.819Z,55.55
2023-02-13T04:35:51.822Z,55.37
2023-02-13T04:36:51.904Z,55.61
2023-02-13T04:37:51.801Z,55.77
2023-02-13T04:38:51.843Z,55.60
2023-02-13T04:39:51.776Z,60.90
2023-02-13T04:40:51.777Z,56.37
2023-02-13T04:41:51.772Z,55.25
2023-02-13T04:42:51.746Z,55.38
2023-02-13T04:43:51.747Z,57.10
2023-02-13T04:44:51.799Z,55.42
2023-02-13T04:46:08.298Z,58.28
2023-02-13T04:46:51.744Z,58.41
2023-02-13T04:47:51.724Z,57.82
2023-02-13T04:48:51.732Z,55.60
2023-02-13T04:49:51.722Z,55.97
2023-02-13T04:50:51.748Z,55.90
2023-02-13T04:51:51.690Z,57.95
2023-02-13T04:52:51.677Z,58.64
2023-02-13T04:53:51.698Z,56.51
2023-02-13T04:54:51.670Z,54.73
2023-02-13T04:55:51.675Z,54.99
2023-02-13T04:56:51.768Z,55.41
2023-02-13T04:57:51.656Z,55.72
2023-02-13T04:58:51.657Z,55.81
2023-02-13T04:59:51.658Z,55.27
2023-02-13T05:00:51.658Z,56.88
2023-02-13T05:01:51.624Z,56.53
2023-02-13T05:02:51.655Z,59.10
2023-02-13T05:03:51.612Z,55.25
2023-02-13T05:04:51.717Z,55.93
2023-02-13T05:05:51.605Z,59.53
2023-02-13T05:06:51.584Z,58.64
2023-02-13T05:07:51.582Z,55.78
2023-02-13T05:08:51.633Z,56.27
2023-02-13T05:09:51.584Z,57.05
2023-02-13T05:10:51.584Z,55.54
2023-02-13T05:11:51.556Z,57.16
2023-02-13T05:12:51.566Z,55.36
2023-02-13T05:13:51.549Z,55.28
2023-02-13T05:14:51.562Z,54.96
2023-02-13T05:15:51.573Z,55.04
2023-02-13T05:16:51.510Z,55.07
2023-02-13T05:17:51.507Z,55.27
2023-02-13T05:18:51.534Z,56.05
2023-02-13T05:19:51.520Z,55.21
2023-02-13T05:20:51.541Z,56.54
2023-02-13T05:21:51.506Z,56.59
2023-02-13T05:22:51.488Z,56.17
2023-02-13T05:23:51.478Z,56.09
2023-02-13T05:24:51.464Z,55.41
2023-02-13T05:25:51.459Z,56.42
2023-02-13T05:26:51.482Z,58.33
2023-02-13T05:27:51.453Z,57.22
2023-02-13T05:28:51.449Z,56.45
2023-02-13T05:29:51.432Z,57.96
2023-02-13T05:30:51.487Z,56.27
2023-02-13T05:31:51.478Z,57.49
2023-02-13T05:32:51.623Z,56.08
2023-02-13T05:33:51.401Z,54.95
2023-02-13T05:34:51.396Z,54.94
2023-02-13T05:35:51.400Z,55.15
2023-02-13T05:36:51.386Z,56.28
2023-02-13T05:37:51.359Z,56.74
2023-02-13T05:38:51.405Z,55.54
2023-02-13T05:39:51.358Z,57.03
2023-02-13T05:40:51.376Z,59.59
2023-02-13T05:41:51.327Z,55.86
2023-02-13T05:42:51.370Z,56.68
2023-02-13T05:43:51.351Z,55.42
2023-02-13T05:44:51.360Z,56.20
2023-02-13T05:45:51.315Z,55.53
2023-02-13T05:46:51.301Z,57.87
2023-02-13T05:47:51.301Z,58.80
2023-02-13T05:48:51.286Z,56.67
2023-02-13T05:49:51.317Z,57.18
2023-02-13T05:50:51.319Z,57.35
2023-02-13T05:51:51.269Z,57.98
2023-02-13T05:52:51.253Z,57.23
2023-02-13T05:53:51.251Z,56.20
2023-02-13T05:54:51.232Z,57.79
2023-02-13T05:55:51.226Z,55.47
2023-02-13T05:56:51.272Z,55.72
2023-02-13T05:57:51.212Z,59.98
2023-02-13T05:58:51.216Z,60.01
2023-02-13T05:59:51.199Z,60.88
2023-02-13T06:00:51.168Z,58.33
2023-02-13T06:01:51.181Z,60.19
2023-02-13T06:02:51.282Z,58.92
2023-02-13T06:04:07.913Z,58.56
2023-02-13T06:04:51.149Z,58.49
2023-02-13T06:05:51.156Z,58.39
2023-02-13T06:06:51.172Z,60.73
2023-02-13T06:07:51.120Z,61.94
2023-02-13T06:08:51.188Z,72.44
2023-02-13T06:09:51.124Z,74.50
2023-02-13T06:10:51.148Z,73.39
2023-02-13T06:11:51.103Z,70.14
2023-02-13T06:12:51.111Z,66.29
2023-02-13T06:13:51.116Z,62.79
2023-02-13T06:14:51.124Z,61.03
2023-02-13T06:15:51.093Z,59.12
2023-02-13T06:16:51.077Z,59.49
2023-02-13T06:17:51.053Z,60.17
2023-02-13T06:18:51.040Z,60.00
2023-02-13T06:19:51.059Z,57.94
2023-02-13T06:20:51.101Z,60.19
2023-02-13T06:21:51.041Z,57.68
2023-02-13T06:22:51.058Z,59.81
2023-02-13T06:23:50.999Z,59.12
2023-02-13T06:24:51.015Z,59.10
2023-02-13T06:25:51.004Z,60.16
2023-02-13T06:26:51.057Z,57.93
2023-02-13T06:27:50.988Z,59.76
2023-02-13T06:28:50.989Z,59.64
2023-02-13T06:29:50.960Z,60.32
2023-02-13T06:30:51.150Z,58.45
2023-02-13T06:31:51.016Z,62.92
2023-02-13T06:32:51.021Z,62.87
2023-02-13T06:33:50.963Z,61.48
2023-02-13T06:34:50.954Z,62.87
2023-02-13T06:35:50.929Z,64.04
2023-02-13T06:36:50.934Z,61.97
2023-02-13T06:37:50.916Z,63.70
2023-02-13T06:38:51.414Z,63.23
2023-02-13T06:39:50.916Z,60.20
2023-02-13T06:40:50.907Z,62.71
2023-02-13T06:41:50.926Z,64.31
2023-02-13T06:42:50.916Z,62.52
2023-02-13T06:43:50.874Z,61.22
2023-02-13T06:44:50.922Z,62.52
2023-02-13T06:45:50.868Z,63.21
2023-02-13T06:46:50.880Z,62.03
2023-02-13T06:47:50.835Z,62.68
2023-02-13T06:48:50.837Z,61.61
2023-02-13T06:49:50.823Z,63.64
2023-02-13T06:50:50.953Z,61.57
2023-02-13T06:51:50.814Z,62.74
2023-02-13T06:52:50.829Z,63.53
2023-02-13T06:53:50.798Z,64.73
2023-02-13T06:54:50.797Z,63.59
2023-02-13T06:55:50.797Z,63.89
2023-02-13T06:56:50.820Z,63.49
2023-02-13T06:57:50.836Z,59.97
2023-02-13T06:58:50.777Z,64.13
2023-02-13T06:59:50.771Z,62.78
2023-02-13T07:00:50.808Z,59.72
2023-02-13T07:01:50.752Z,64.01
2023-02-13T07:02:50.834Z,62.12
2023-02-13T07:03:50.731Z,59.71
2023-02-13T07:04:50.766Z,64.16
2023-02-13T07:05:50.727Z,63.63
2023-02-13T07:06:50.729Z,64.01
2023-02-13T07:07:50.720Z,61.43
2023-02-13T07:08:50.736Z,62.67
2023-02-13T07:09:50.698Z,66.66
2023-02-13T07:10:50.695Z,60.14
2023-02-13T07:11:51.595Z,61.53
2023-02-13T07:13:00.249Z,63.36
2023-02-13T07:13:51.714Z,62.90
2023-02-13T07:14:50.679Z,63.92
2023-02-13T07:15:50.663Z,63.20
2023-02-13T07:16:50.664Z,59.65
2023-02-13T07:17:50.647Z,60.18
2023-02-13T07:18:50.637Z,61.60
2023-02-13T07:19:50.643Z,62.04
2023-02-13T07:20:50.623Z,60.56
2023-02-13T07:21:50.628Z,61.94
2023-02-13T07:22:50.605Z,61.86
2023-02-13T07:23:50.590Z,58.68
2023-02-13T07:24:50.605Z,61.66
2023-02-13T07:25:50.610Z,62.58
2023-02-13T07:26:50.589Z,63.82
2023-02-13T07:27:50.564Z,62.69
2023-02-13T07:28:59.439Z,61.05
2023-02-13T07:29:51.541Z,62.08
2023-02-13T07:30:50.671Z,59.94
2023-02-13T07:31:50.648Z,64.47
2023-02-13T07:32:50.552Z,62.42
2023-02-13T07:33:50.518Z,63.48
2023-02-13T07:35:01.361Z,65.43
2023-02-13T07:35:51.531Z,63.18
2023-02-13T07:36:50.500Z,62.73
2023-02-13T07:37:50.537Z,61.59
2023-02-13T07:38:50.510Z,62.80
2023-02-13T07:39:50.490Z,61.83
2023-02-13T07:40:50.522Z,62.11
2023-02-13T07:41:50.467Z,63.50
2023-02-13T07:42:50.493Z,62.67
2023-02-13T07:43:50.861Z,62.42
2023-02-13T07:44:50.455Z,62.63
2023-02-13T07:45:50.432Z,64.40
2023-02-13T07:46:50.527Z,62.37
2023-02-13T07:47:50.422Z,61.72
2023-02-13T07:48:50.424Z,61.64
2023-02-13T07:49:50.471Z,62.19
2023-02-13T07:50:50.405Z,61.34
2023-02-13T07:51:50.406Z,61.07
2023-02-13T07:52:50.454Z,62.45
2023-02-13T07:53:50.392Z,63.49
2023-02-13T07:54:50.376Z,64.13
2023-02-13T07:55:50.406Z,61.51
2023-02-13T07:56:50.361Z,63.31
2023-02-13T07:57:50.363Z,60.55
2023-02-13T07:58:50.363Z,62.69
2023-02-13T07:59:50.363Z,61.86
2023-02-13T08:00:50.349Z,61.63
2023-02-13T08:01:50.415Z,63.14
2023-02-13T08:02:50.314Z,63.65
2023-02-13T08:03:50.338Z,62.71
2023-02-13T08:04:50.303Z,60.52
2023-02-13T08:05:50.326Z,61.10
2023-02-13T08:06:50.305Z,60.21
2023-02-13T08:07:50.336Z,59.89
2023-02-13T08:08:50.283Z,61.41
2023-02-13T08:09:50.295Z,63.76
2023-02-13T08:10:50.265Z,61.89
2023-02-13T08:11:50.262Z,62.69
2023-02-13T08:12:50.242Z,62.49
2023-02-13T08:13:50.301Z,63.44
2023-02-13T08:14:50.231Z,60.38
2023-02-13T08:15:50.206Z,59.39
2023-02-13T08:16:50.285Z,60.95
2023-02-13T08:17:50.241Z,61.62
2023-02-13T08:18:50.203Z,61.19
2023-02-13T08:19:50.253Z,62.06
2023-02-13T08:20:50.209Z,58.27
2023-02-13T08:21:50.187Z,58.86
2023-02-13T08:22:50.181Z,59.60
2023-02-13T08:23:50.161Z,59.71
2023-02-13T08:24:50.183Z,60.13
2023-02-13T08:25:50.194Z,59.38
2023-02-13T08:26:50.141Z,58.88
2023-02-13T08:27:50.145Z,60.69
2023-02-13T08:28:50.145Z,58.68
2023-02-13T08:29:50.133Z,60.11
2023-02-13T08:30:50.163Z,60.90
2023-02-13T08:31:50.201Z,62.42
2023-02-13T08:32:54.249Z,60.94
2023-02-13T08:33:50.073Z,60.00
2023-02-13T08:34:50.082Z,60.88
2023-02-13T08:35:50.091Z,61.37
2023-02-13T08:36:50.097Z,61.41
2023-02-13T08:37:50.119Z,60.51
2023-02-13T08:38:50.053Z,58.41
2023-02-13T08:39:50.052Z,58.23
2023-02-13T08:40:50.036Z,57.89
2023-02-13T08:41:50.045Z,61.10
2023-02-13T08:42:50.035Z,61.64
2023-02-13T08:43:50.065Z,63.44
2023-02-13T08:44:50.018Z,62.60
2023-02-13T08:45:50.060Z,59.89
2023-02-13T08:46:50.012Z,61.88
2023-02-13T08:47:50.001Z,61.37
2023-02-13T08:48:49.986Z,59.92
2023-02-13T08:49:50.252Z,59.16
2023-02-13T08:50:49.984Z,60.84
2023-02-13T08:51:49.967Z,60.42
2023-02-13T08:52:49.956Z,60.70
2023-02-13T08:53:49.964Z,61.99
2023-02-13T08:54:49.967Z,62.02
2023-02-13T08:55:49.956Z,58.71
2023-02-13T08:56:49.912Z,59.33
2023-02-13T08:57:49.906Z,59.23
2023-02-13T08:58:49.936Z,60.80
2023-02-13T08:59:49.896Z,59.05
2023-02-13T09:00:49.932Z,60.76
2023-02-13T09:01:49.957Z,60.12
2023-02-13T09:02:49.908Z,60.49
2023-02-13T09:03:49.886Z,58.10
2023-02-13T09:04:49.884Z,61.41
2023-02-13T09:05:49.854Z,61.57
2023-02-13T09:06:49.847Z,59.22
2023-02-13T09:07:49.879Z,57.88
2023-02-13T09:08:49.844Z,60.10
2023-02-13T09:09:49.829Z,61.09
2023-02-13T09:10:49.806Z,62.13
2023-02-13T09:11:49.809Z,58.91
2023-02-13T09:12:49.794Z,60.10
2023-02-13T09:13:49.843Z,61.63
2023-02-13T09:14:49.787Z,62.49
2023-02-13T09:15:49.802Z,60.17
2023-02-13T09:16:49.813Z,58.83
2023-02-13T09:17:49.775Z,60.18
2023-02-13T09:18:49.761Z,60.37
2023-02-13T09:19:49.833Z,60.43
2023-02-13T09:25:50.739Z,60.77
2023-02-13T09:26:49.820Z,60.29
2023-02-13T09:27:49.692Z,61.61
2023-02-13T09:28:49.800Z,58.97
2023-02-13T09:29:49.694Z,56.99
2023-02-13T09:30:49.766Z,58.02
2023-02-13T09:31:49.844Z,59.62
2023-02-13T09:32:49.662Z,60.65
2023-02-13T09:33:49.664Z,60.63
2023-02-13T09:34:49.632Z,59.72
2023-02-13T09:35:49.633Z,61.84
2023-02-13T09:36:49.615Z,61.73
2023-02-13T09:37:49.681Z,61.08
2023-02-13T09:38:49.612Z,59.38
2023-02-13T09:39:49.603Z,58.56
2023-02-13T09:40:49.612Z,59.97
2023-02-13T09:41:49.584Z,58.87
2023-02-13T09:42:49.580Z,61.50
2023-02-13T09:43:49.634Z,59.07
2023-02-13T09:44:49.603Z,59.87
2023-02-13T09:45:49.584Z,67.61
2023-02-13T09:46:49.572Z,61.08
2023-02-13T09:47:49.573Z,56.47
2023-02-13T09:48:49.530Z,57.13
2023-02-13T09:49:49.563Z,59.21
2023-02-13T09:50:49.566Z,58.70
2023-02-13T09:51:49.526Z,60.67
2023-02-13T09:52:49.514Z,59.22
2023-02-13T09:53:49.514Z,59.38
2023-02-13T09:54:49.530Z,57.73
2023-02-13T09:55:49.910Z,59.57
2023-02-13T09:56:49.487Z,57.45
2023-02-13T09:57:49.469Z,56.36
2023-02-13T09:58:49.458Z,57.71
2023-02-13T09:59:49.483Z,58.87
2023-02-13T10:00:50.887Z,59.23
2023-02-13T10:01:49.520Z,59.14
2023-02-13T10:02:49.457Z,57.34
2023-02-13T10:03:49.450Z,57.71
2023-02-13T10:04:49.459Z,57.31
2023-02-13T10:05:49.427Z,57.29
2023-02-13T10:06:49.428Z,58.66
2023-02-13T10:07:49.433Z,60.95
2023-02-13T10:08:49.411Z,61.86
2023-02-13T10:09:49.395Z,60.63
2023-02-13T10:10:49.404Z,57.19
2023-02-13T10:11:49.355Z,57.45
2023-02-13T10:12:49.381Z,58.48
2023-02-13T10:13:49.385Z,60.43
2023-02-13T10:14:49.362Z,60.08
2023-02-13T10:15:49.355Z,57.46
2023-02-13T10:16:49.352Z,58.23
2023-02-13T10:17:49.340Z,59.55
2023-02-13T10:18:49.343Z,58.91
2023-02-13T10:19:49.380Z,57.96
2023-02-13T10:20:49.321Z,58.24
2023-02-13T10:21:49.302Z,56.89
2023-02-13T10:22:49.283Z,57.98
2023-02-13T10:23:49.286Z,57.53
2023-02-13T10:24:49.272Z,58.09
2023-02-13T10:25:49.321Z,56.68
2023-02-13T10:26:49.271Z,59.27
2023-02-13T10:27:49.274Z,58.47
2023-02-13T10:28:49.254Z,60.71
2023-02-13T10:29:49.230Z,59.72
2023-02-13T10:30:49.412Z,58.77
2023-02-13T10:31:49.539Z,57.37
2023-02-13T10:32:49.204Z,57.52
2023-02-13T10:33:49.201Z,56.47
2023-02-13T10:34:49.222Z,57.74
2023-02-13T10:35:49.171Z,58.20
2023-02-13T10:42:11.724Z,60.08
2023-02-13T10:43:10.679Z,56.18
2023-02-13T10:44:10.644Z,58.27
2023-02-13T10:45:10.612Z,56.45
2023-02-13T10:46:10.718Z,58.04
2023-02-13T10:47:10.736Z,57.29
2023-02-13T10:48:10.648Z,56.46
2023-02-13T10:49:10.644Z,59.04
2023-02-13T10:50:10.553Z,56.35
2023-02-13T10:51:10.630Z,56.71
2023-02-13T10:52:10.591Z,58.81
2023-02-13T10:53:10.635Z,58.18
2023-02-13T10:54:10.566Z,61.69
2023-02-13T10:55:10.533Z,58.21
2023-02-13T10:56:10.565Z,57.61
2023-02-13T10:57:10.569Z,58.06
2023-02-13T10:58:10.552Z,58.77
2023-02-13T10:59:10.816Z,57.13
2023-02-13T11:00:10.503Z,59.49
2023-02-13T11:01:10.529Z,61.19
2023-02-13T11:02:10.475Z,59.69
2023-02-13T11:03:10.534Z,58.02
2023-02-13T11:04:10.513Z,57.75
2023-02-13T11:05:10.532Z,56.96
2023-02-13T11:06:10.565Z,57.00
2023-02-13T11:07:10.479Z,57.97
2023-02-13T11:08:10.510Z,57.22
2023-02-13T11:09:10.459Z,57.26
2023-02-13T11:10:10.454Z,60.37
2023-02-13T11:11:10.578Z,58.76
2023-02-13T11:12:10.457Z,59.53
2023-02-13T11:13:10.436Z,58.28
2023-02-13T11:14:10.391Z,56.88
2023-02-13T11:15:10.365Z,59.43
2023-02-13T11:16:10.556Z,57.87
2023-02-13T11:17:10.430Z,55.59
2023-02-13T11:18:10.403Z,57.67
2023-02-13T11:19:10.349Z,57.25
2023-02-13T11:20:10.401Z,56.83
2023-02-13T11:21:10.343Z,57.64
2023-02-13T11:22:10.333Z,55.85
2023-02-13T11:23:10.563Z,57.79
2023-02-13T11:24:10.388Z,54.98
2023-02-13T11:25:10.421Z,56.70
2023-02-13T11:26:10.325Z,58.87
2023-02-13T11:27:10.379Z,56.93
2023-02-13T11:28:10.410Z,57.36
2023-02-13T11:29:10.447Z,58.83
2023-02-13T11:30:10.306Z,60.31
2023-02-13T11:31:10.397Z,58.02
2023-02-13T11:32:10.368Z,57.78
2023-02-13T11:33:10.250Z,57.60
2023-02-13T11:34:10.265Z,57.18
2023-02-13T11:35:10.310Z,55.20
2023-02-13T11:36:10.261Z,55.25
2023-02-13T11:37:10.280Z,57.70
2023-02-13T11:38:10.223Z,58.19
2023-02-13T11:39:10.248Z,54.74
2023-02-13T11:40:10.193Z,55.04
2023-02-13T11:41:10.280Z,59.43
2023-02-13T11:42:10.308Z,57.49
2023-02-13T11:43:10.258Z,54.52
2023-02-13T11:44:10.206Z,55.71
2023-02-13T11:45:10.162Z,58.49
2023-02-13T11:46:10.210Z,58.12
2023-02-13T11:47:10.185Z,56.10
2023-02-13T11:48:10.151Z,55.73
2023-02-13T11:49:10.117Z,57.04
2023-02-13T11:50:10.120Z,57.72
2023-02-13T11:51:10.126Z,56.58
2023-02-13T11:52:10.127Z,56.70
2023-02-13T11:53:10.157Z,55.59
2023-02-13T11:54:10.179Z,58.55
2023-02-13T11:55:10.098Z,57.05
2023-02-13T11:56:10.098Z,57.42
2023-02-13T11:57:10.110Z,57.06
2023-02-13T11:58:13.440Z,56.90
2023-02-13T11:59:10.140Z,57.04
2023-02-13T12:00:10.221Z,57.55
2023-02-13T12:01:10.052Z,55.29
2023-02-13T12:02:10.059Z,56.64
2023-02-13T12:03:10.120Z,56.47
2023-02-13T12:04:10.042Z,55.68
2023-02-13T12:05:10.500Z,55.29
2023-02-13T12:06:10.092Z,56.65
2023-02-13T12:07:10.026Z,57.01
2023-02-13T12:08:10.023Z,59.38
2023-02-13T12:09:10.012Z,56.78
2023-02-13T12:10:10.035Z,56.88
2023-02-13T12:11:10.043Z,58.97
2023-02-13T12:12:10.056Z,57.89
2023-02-13T12:13:10.003Z,56.46
2023-02-13T12:14:09.983Z,61.54
2023-02-13T12:15:10.023Z,59.34
2023-02-13T12:16:10.029Z,58.02
2023-02-13T12:17:14.387Z,59.96
2023-02-13T12:18:11.036Z,58.23
2023-02-13T12:19:10.032Z,58.33
2023-02-13T12:20:09.984Z,56.62
2023-02-13T12:21:09.981Z,56.89
2023-02-13T12:22:10.003Z,56.42
2023-02-13T12:23:10.063Z,57.82
2023-02-13T12:24:10.021Z,55.92
2023-02-13T12:25:09.990Z,57.08
2023-02-13T12:26:09.954Z,59.81
2023-02-13T12:27:09.966Z,58.31
2023-02-13T12:28:09.995Z,57.54
2023-02-13T12:29:10.018Z,56.85
2023-02-13T12:30:09.934Z,56.34
2023-02-13T12:31:09.930Z,57.01
2023-02-13T12:32:09.887Z,58.87
2023-02-13T12:33:09.853Z,57.49
2023-02-13T12:34:09.822Z,56.79
2023-02-13T12:35:09.870Z,58.47
2023-02-13T12:36:09.860Z,57.93
2023-02-13T12:37:10.923Z,57.09
2023-02-13T12:38:09.861Z,56.27
2023-02-13T12:39:09.879Z,58.02
2023-02-13T12:40:09.805Z,56.55
2023-02-13T12:41:09.961Z,55.78
2023-02-13T12:42:09.762Z,57.10
2023-02-13T12:43:09.809Z,58.85
2023-02-13T12:44:09.823Z,55.00
2023-02-13T12:45:09.761Z,55.28
2023-02-13T12:46:09.805Z,55.63
2023-02-13T12:47:09.800Z,55.60
2023-02-13T12:48:09.794Z,56.53
2023-02-13T12:49:09.723Z,56.88
2023-02-13T12:50:09.762Z,56.08
2023-02-13T12:51:09.745Z,56.38
2023-02-13T12:52:09.733Z,56.33
2023-02-13T12:53:09.721Z,54.45
2023-02-13T12:54:09.701Z,56.54
2023-02-13T12:55:09.692Z,55.92
2023-02-13T12:56:09.673Z,55.62
2023-02-13T12:57:09.660Z,54.94
2023-02-13T12:58:09.640Z,54.56
2023-02-13T12:59:09.738Z,54.81
2023-02-13T13:00:09.652Z,52.75
2023-02-13T13:01:09.638Z,55.97
2023-02-13T13:02:09.688Z,55.78
2023-02-13T13:03:09.596Z,55.15